createdAt,value
2023-04-10T00:05:04.203Z,61.70
2023-04-10T00:10:19.407Z,68.88
2023-04-10T00:15:31.172Z,56.05
2023-04-10T00:20:37.018Z,61.10
2023-04-10T00:25:42.956Z,54.25
2023-04-10T00:30:48.609Z,48.07
2023-04-10T00:35:54.487Z,41.07
2023-04-10T00:40:59.923Z,38.97
2023-04-10T00:46:08.395Z,47.90
2023-04-10T00:51:14.924Z,47.28
2023-04-10T00:56:22.359Z,48.28
2023-04-10T01:01:27.943Z,47.30
2023-04-10T01:06:52.801Z,41.70
2023-04-10T01:12:04.225Z,47.40
2023-04-10T01:18:03.674Z,49.13
2023-04-10T01:23:38.139Z,57.10
2023-04-10T01:29:02.878Z,64.88
2023-04-10T01:34:19.671Z,64.13
2023-04-10T01:39:27.840Z,74.50
2023-04-10T01:44:36.456Z,80.00
2023-04-10T01:49:46.079Z,69.13
2023-04-10T01:54:55.836Z,67.65
2023-04-10T02:00:12.399Z,92.20
2023-04-10T02:05:21.269Z,81.20
2023-04-10T02:10:41.803Z,77.07
2023-04-10T02:15:50.540Z,77.68
2023-04-10T02:20:57.752Z,80.65
2023-04-10T02:31:12.953Z,88.28
2023-04-10T02:36:19.395Z,99.55
2023-04-10T02:41:25.838Z,96.32
2023-04-10T02:46:32.830Z,95.15
2023-04-10T02:56:44.190Z,100.15
2023-04-10T03:01:49.824Z,85.78
2023-04-10T03:06:56.176Z,87.53
2023-04-10T03:12:03.651Z,72.45
2023-04-10T03:17:10.266Z,100.50
2023-04-10T03:22:17.203Z,93.35
2023-04-10T03:27:24.099Z,98.95
2023-04-10T03:32:32.704Z,105.68
2023-04-10T03:37:39.625Z,122.40
2023-04-10T03:42:46.402Z,120.25
2023-04-10T03:47:53.844Z,108.97
2023-04-10T03:53:00.316Z,136.88
2023-04-10T03:58:10.112Z,115.47
2023-04-10T04:03:16.658Z,131.77
2023-04-10T04:08:28.890Z,99.60
2023-04-10T04:13:56.108Z,116.40
2023-04-10T04:19:13.797Z,122.22
2023-04-10T04:24:39.917Z,157.23
2023-04-10T04:35:16.443Z,170.13
2023-04-10T04:40:40.277Z,138.27
2023-04-10T04:45:57.149Z,141.63
2023-04-10T04:51:29.045Z,152.95
2023-04-10T04:56:50.600Z,132.65
2023-04-10T05:02:02.380Z,174.07
2023-04-10T05:07:23.796Z,181.50
2023-04-10T05:12:30.032Z,184.40
2023-04-10T05:18:06.408Z,201.65
2023-04-10T05:23:13.138Z,192.80
2023-04-10T05:28:25.972Z,176.13
2023-04-10T05:33:53.740Z,184.07
2023-04-10T05:39:18.694Z,159.07
2023-04-10T05:44:40.717Z,152.82
2023-04-10T05:50:07.686Z,171.45
2023-04-10T05:55:36.700Z,180.88
2023-04-10T06:01:00.704Z,163.68
2023-04-10T06:06:42.529Z,148.18
2023-04-10T06:11:49.626Z,188.68
2023-04-10T06:16:59.048Z,154.60
2023-04-10T06:22:05.199Z,142.23
2023-04-10T06:27:10.929Z,142.00
2023-04-10T06:37:29.288Z,153.80
2023-04-10T06:42:34.817Z,170.68
2023-04-10T06:47:53.288Z,150.15
2023-04-10T06:53:01.434Z,147.70
2023-04-10T06:58:07.629Z,147.05
2023-04-10T07:03:13.692Z,142.00
2023-04-10T07:14:12.752Z,148.43
2023-04-10T07:19:19.004Z,161.55
2023-04-10T07:31:16.666Z,130.55
2023-04-10T07:36:59.578Z,140.83
2023-04-10T07:42:05.512Z,137.00
2023-04-10T07:47:11.038Z,141.30
2023-04-10T07:52:17.192Z,144.52
2023-04-10T07:57:33.148Z,147.45
2023-04-10T08:10:05.140Z,163.98
2023-04-10T08:15:12.666Z,155.55
2023-04-10T08:20:18.186Z,170.68
2023-04-10T08:25:23.905Z,163.20
2023-04-10T08:30:29.298Z,155.25
2023-04-10T08:35:37.876Z,174.60
2023-04-10T08:40:45.920Z,168.15
2023-04-10T08:45:53.419Z,179.02
2023-04-10T08:51:03.421Z,169.80
2023-04-10T08:56:10.368Z,181.30
2023-04-10T09:01:16.786Z,157.73
2023-04-10T09:06:23.521Z,165.23
2023-04-10T09:11:56.873Z,169.60
2023-04-10T09:17:15.795Z,137.23
2023-04-10T09:22:31.169Z,164.15
2023-04-10T09:27:40.894Z,172.80
2023-04-10T09:32:50.849Z,151.05
2023-04-10T09:39:32.297Z,169.80
2023-04-10T09:44:43.275Z,141.45
2023-04-10T09:49:55.975Z,152.15
2023-04-10T09:55:04.407Z,155.82
2023-04-10T10:00:11.203Z,174.68
2023-04-10T10:05:19.355Z,222.95
2023-04-10T10:10:26.548Z,193.50
2023-04-10T10:15:48.704Z,158.57
2023-04-10T10:26:21.079Z,198.63
2023-04-10T10:31:28.624Z,184.77
2023-04-10T10:36:34.830Z,194.20
2023-04-10T10:42:11.302Z,174.07
2023-04-10T10:47:19.664Z,206.35
2023-04-10T10:52:48.639Z,175.73
2023-04-10T10:57:57.047Z,190.55
2023-04-10T11:03:11.041Z,176.77
2023-04-10T11:08:17.429Z,205.43
2023-04-10T11:13:22.790Z,202.60
2023-04-10T11:19:14.348Z,169.63
2023-04-10T11:24:21.438Z,185.18
2023-04-10T11:29:30.262Z,178.20
2023-04-10T11:34:36.893Z,179.05
2023-04-10T11:39:42.636Z,194.80
2023-04-10T11:44:51.117Z,189.70
2023-04-10T11:50:00.466Z,181.32
2023-04-10T11:55:10.347Z,192.90
2023-04-10T12:00:26.101Z,217.88
2023-04-10T12:05:53.293Z,205.93
2023-04-10T12:11:01.204Z,182.50
2023-04-10T12:16:11.366Z,182.10
2023-04-10T12:21:20.893Z,200.10
2023-04-10T12:26:46.862Z,196.38
2023-04-10T12:32:00.537Z,208.00
2023-04-10T12:37:07.893Z,213.27
2023-04-10T12:42:22.410Z,227.48
2023-04-10T12:47:31.301Z,192.88
2023-04-10T12:52:37.587Z,222.95
2023-04-10T12:57:48.465Z,224.02
2023-04-10T13:02:54.302Z,222.25
2023-04-10T13:13:52.321Z,209.03
2023-04-10T13:18:59.270Z,225.32
2023-04-10T13:24:08.538Z,245.70
2023-04-10T13:29:15.200Z,204.82
2023-04-10T13:39:27.242Z,224.77
2023-04-10T13:44:33.153Z,210.50
2023-04-10T13:49:39.891Z,226.90
2023-04-10T13:54:50.900Z,180.05
2023-04-10T13:59:57.026Z,186.60
2023-04-10T14:05:02.683Z,225.60
2023-04-10T14:10:09.928Z,222.93
2023-04-10T14:15:15.636Z,188.85
2023-04-10T14:20:21.263Z,216.17
2023-04-10T14:25:35.525Z,183.73
2023-04-10T14:30:41.390Z,187.50
2023-04-10T14:35:48.094Z,220.77
2023-04-10T14:40:55.255Z,218.10
2023-04-10T14:46:00.499Z,204.25
2023-04-10T14:51:08.220Z,186.05
2023-04-10T14:56:21.123Z,175.88
2023-04-10T15:01:26.887Z,181.73
2023-04-10T15:06:34.777Z,210.52
2023-04-10T15:11:40.364Z,165.93
2023-04-10T15:16:45.864Z,174.93
2023-04-10T15:21:51.657Z,184.00
2023-04-10T15:26:57.799Z,169.35
2023-04-10T15:32:03.516Z,197.05
2023-04-10T15:37:09.748Z,201.85
2023-04-10T15:42:17.423Z,175.63
2023-04-10T15:47:23.112Z,159.43
2023-04-10T15:52:30.831Z,157.05
2023-04-10T15:57:36.390Z,167.23
2023-04-10T16:02:42.133Z,171.33
2023-04-10T16:12:53.227Z,137.05
2023-04-10T16:17:59.995Z,157.30
2023-04-10T16:23:05.779Z,168.07
2023-04-10T16:28:11.191Z,138.70
2023-04-10T16:38:22.763Z,137.40
2023-04-10T16:43:28.498Z,141.30
2023-04-10T16:48:35.607Z,135.05
2023-04-10T16:53:42.106Z,124.50
2023-04-10T16:58:48.814Z,122.70
2023-04-10T17:03:55.783Z,137.50
2023-04-10T17:09:01.837Z,140.85
2023-04-10T17:14:08.870Z,126.18
2023-04-10T17:19:14.518Z,114.10
2023-04-10T17:24:20.148Z,119.83
2023-04-10T17:29:27.188Z,123.05
2023-04-10T17:34:33.103Z,112.28
2023-04-10T17:39:38.733Z,106.70
2023-04-10T17:44:44.216Z,108.27
2023-04-10T17:49:49.699Z,111.77
2023-04-10T17:54:55.086Z,108.23
2023-04-10T18:00:00.366Z,108.23
2023-04-10T18:05:06.072Z,102.90
2023-04-10T18:10:12.699Z,91.10
2023-04-10T18:15:18.571Z,93.43
2023-04-10T18:20:24.968Z,87.05
2023-04-10T18:25:30.573Z,97.63
2023-04-10T18:30:36.448Z,81.80
2023-04-10T18:35:41.878Z,91.35
2023-04-10T18:40:47.497Z,88.03
2023-04-10T18:45:53.645Z,83.20
2023-04-10T18:51:05.373Z,82.28
2023-04-10T18:56:11.201Z,89.90
2023-04-10T19:01:32.575Z,86.93
2023-04-10T19:07:52.951Z,77.68
2023-04-10T19:13:07.456Z,81.32
2023-04-10T19:18:14.885Z,85.60
2023-04-10T19:23:23.018Z,80.85
2023-04-10T19:28:28.819Z,86.40
2023-04-10T19:33:34.551Z,78.60
2023-04-10T19:38:42.301Z,80.38
2023-04-10T19:43:47.764Z,73.35
2023-04-10T19:48:53.601Z,77.47
2023-04-10T19:53:59.597Z,75.80
2023-04-10T20:04:10.292Z,70.15
2023-04-10T20:09:18.914Z,78.70
2023-04-10T20:14:25.036Z,77.90
2023-04-10T20:24:35.451Z,64.22
2023-04-10T20:29:41.015Z,65.07
2023-04-10T20:34:46.319Z,68.53
2023-04-10T20:39:52.880Z,64.97
2023-04-10T20:50:03.237Z,65.97
2023-04-10T20:55:08.850Z,68.13
2023-04-10T21:00:14.734Z,64.72
2023-04-10T21:05:20.355Z,69.70
2023-04-10T21:10:25.581Z,62.30
2023-04-10T21:15:30.904Z,57.20
2023-04-10T21:20:36.153Z,72.20
2023-04-10T21:25:41.447Z,76.10
2023-04-10T21:30:47.115Z,85.90
2023-04-10T21:35:52.705Z,79.75
2023-04-10T21:41:16.945Z,65.30
2023-04-10T21:46:22.481Z,85.50
2023-04-10T21:51:29.142Z,61.27
2023-04-10T21:56:38.307Z,53.63
2023-04-10T22:07:05.418Z,60.10
2023-04-10T22:12:10.876Z,60.90
2023-04-10T22:17:16.973Z,54.73
2023-04-10T22:27:27.675Z,53.88
2023-04-10T22:32:33.247Z,59.07
2023-04-10T22:37:38.558Z,55.87
2023-04-10T22:42:45.785Z,51.00
2023-04-10T22:47:51.001Z,50.45
2023-04-10T22:53:35.771Z,48.13
2023-04-10T22:58:42.257Z,53.45
2023-04-10T23:04:05.879Z,47.97
2023-04-10T23:09:11.335Z,49.53
2023-04-10T23:14:25.991Z,48.37
2023-04-10T23:19:32.064Z,49.83
2023-04-10T23:24:37.722Z,48.63
2023-04-10T23:29:43.273Z,45.25
2023-04-10T23:34:48.982Z,52.27
2023-04-10T23:40:03.112Z,50.08
2023-04-10T23:45:36.045Z,50.83
2023-04-10T23:50:42.002Z,43.63
2023-04-10T23:55:51.893Z,43.67
